X  Sluiten METAR luchtvaart weer gegevens         EBOS Ostend-Bruges International Airport
Temperatuur
22°C Temperatuur
10°C Dauwpunt
47% Vochtigheid



Wind
13 KM/U
8 MPH
4 M/S
7 KTS



220°
ZW
Huidig weer

Mostly Sunny Grotendeels zonnig
Luchtdruk 1014 (hPa) - 29.94 (inHg)
Zicht 30 (mijl) - 48 (km)
Vliegveld
Vliegveld code EBOS

Locatie : Ostend-Bruges International Airport
Afstand: 60 (km)

Metar:
METAR EBOS 290950Z 22007KT 180V260 9999 FEW045 22/10 Q1014 BECMG 31010KT

Tijd: 29-06-2022 11:50 CEST